Time;durP1;ratioP1;P1;durP2;ratioP2;P2;SDS_P1;SDS_P2;PMS_P1;PMS_P2;Temp;Humidity;BMP_temperature;BMP_pressure;BME280_temperature;BME280_humidity;BME280_pressure;Samples;Min_cycle;Max_cycle;Signal;HPM_P1;HPM_P2
2022/03/06 00:00:15;;;;;;;2.03;0.75;;;;;;;;;;5081527;28;20020;-72
2022/03/06 00:02:40;;;;;;;1.10;0.60;;;;;;;;;;5081829;28;20029;-72
2022/03/06 00:05:07;;;;;;;1.10;0.85;;;;;;;;;;5082757;28;20367;-71
2022/03/06 00:07:32;;;;;;;1.58;0.70;;;;;;;;;;5083098;28;20028;-71
2022/03/06 00:09:58;;;;;;;3.10;0.88;;;;;;;;;;5082920;28;20055;-71
2022/03/06 00:12:24;;;;;;;1.95;0.80;;;;;;;;;;5081394;28;20050;-71
2022/03/06 00:14:49;;;;;;;2.08;0.82;;;;;;;;;;5081135;28;20032;-72
2022/03/06 00:17:15;;;;;;;7.25;1.13;;;;;;;;;;5083046;28;20037;-72
2022/03/06 00:19:40;;;;;;;3.28;0.90;;;;;;;;;;5083092;28;20024;-72
2022/03/06 00:22:05;;;;;;;1.10;0.70;;;;;;;;;;5082626;28;20033;-71
2022/03/06 00:24:34;;;;;;;3.33;0.90;;;;;;;;;;5082351;28;20059;-72
2022/03/06 00:26:59;;;;;;;4.20;1.05;;;;;;;;;;5097848;28;20074;-73
2022/03/06 00:29:25;;;;;;;2.92;0.85;;;;;;;;;;5082733;28;20088;-72
2022/03/06 00:31:54;;;;;;;1.00;0.70;;;;;;;;;;5082596;28;20029;-72
2022/03/06 00:34:20;;;;;;;0.60;0.50;;;;;;;;;;5082887;28;20051;-73
2022/03/06 00:36:45;;;;;;;3.78;1.05;;;;;;;;;;5083489;28;20080;-72
2022/03/06 00:39:13;;;;;;;2.15;0.73;;;;;;;;;;5083759;28;20040;-72
2022/03/06 00:41:38;;;;;;;3.15;0.98;;;;;;;;;;5082390;28;20478;-72
2022/03/06 00:44:04;;;;;;;3.78;0.80;;;;;;;;;;5082416;28;20096;-72
2022/03/06 00:46:29;;;;;;;1.23;0.75;;;;;;;;;;5082959;28;20266;-72
2022/03/06 00:48:54;;;;;;;2.83;0.82;;;;;;;;;;5082226;28;20032;-73
2022/03/06 00:51:20;;;;;;;2.00;0.70;;;;;;;;;;5082337;28;20434;-72
2022/03/06 00:53:45;;;;;;;1.55;0.70;;;;;;;;;;5082575;28;20026;-72
2022/03/06 00:56:11;;;;;;;1.63;0.73;;;;;;;;;;5081496;28;20120;-72
2022/03/06 00:58:37;;;;;;;3.40;0.80;;;;;;;;;;5081305;28;20029;-73
2022/03/06 01:01:03;;;;;;;1.08;0.60;;;;;;;;;;5081182;28;20032;-73
2022/03/06 01:03:29;;;;;;;3.20;1.27;;;;;;;;;;5084836;28;20056;-72
2022/03/06 01:05:54;;;;;;;3.17;0.80;;;;;;;;;;5085956;28;20401;-72
2022/03/06 01:08:20;;;;;;;0.73;0.60;;;;;;;;;;5086439;28;20097;-73
2022/03/06 01:10:47;;;;;;;1.85;0.75;;;;;;;;;;5085272;28;20055;-73
2022/03/06 01:13:13;;;;;;;1.85;0.68;;;;;;;;;;5085908;28;20367;-73
2022/03/06 01:15:39;;;;;;;2.10;0.98;;;;;;;;;;5086302;28;20036;-72
2022/03/06 01:18:06;;;;;;;3.75;0.90;;;;;;;;;;5084524;28;20027;-72
2022/03/06 01:20:33;;;;;;;2.70;1.00;;;;;;;;;;5084684;28;20039;-74
2022/03/06 01:22:58;;;;;;;2.33;0.80;;;;;;;;;;5085979;28;20036;-72
2022/03/06 01:25:24;;;;;;;3.22;0.88;;;;;;;;;;5086294;28;20029;-73
2022/03/06 01:27:49;;;;;;;1.42;0.80;;;;;;;;;;5086051;28;20056;-73
2022/03/06 01:30:15;;;;;;;4.45;0.80;;;;;;;;;;5085859;28;20032;-73
2022/03/06 01:32:41;;;;;;;2.70;0.73;;;;;;;;;;5085912;28;20054;-73
2022/03/06 01:35:08;;;;;;;1.38;0.57;;;;;;;;;;5084483;28;20028;-73
2022/03/06 01:37:34;;;;;;;1.42;0.80;;;;;;;;;;5085441;28;20035;-73
2022/03/06 01:40:00;;;;;;;4.95;1.02;;;;;;;;;;5084341;28;20092;-73
2022/03/06 01:42:25;;;;;;;1.55;0.82;;;;;;;;;;5085491;28;20040;-73
2022/03/06 01:44:51;;;;;;;2.08;0.65;;;;;;;;;;5084083;28;20489;-73
2022/03/06 01:47:34;;;;;;;1.67;1.00;;;;;;;;;;5085792;28;20036;-73
2022/03/06 01:50:00;;;;;;;6.15;1.00;;;;;;;;;;5084730;28;20031;-73
2022/03/06 01:52:25;;;;;;;3.03;0.80;;;;;;;;;;5085429;28;20116;-73
2022/03/06 01:54:51;;;;;;;1.50;0.80;;;;;;;;;;5085703;28;20032;-73
2022/03/06 01:57:16;;;;;;;2.05;0.70;;;;;;;;;;5085604;28;20048;-72
2022/03/06 01:59:41;;;;;;;3.30;1.08;;;;;;;;;;5085143;28;20035;-73
2022/03/06 02:02:07;;;;;;;3.50;0.70;;;;;;;;;;5085263;28;20032;-73
2022/03/06 02:04:33;;;;;;;2.80;0.90;;;;;;;;;;5085105;28;20055;-73
2022/03/06 02:06:59;;;;;;;1.52;0.90;;;;;;;;;;5085553;28;20333;-73
2022/03/06 02:09:24;;;;;;;3.25;0.88;;;;;;;;;;5085161;28;20021;-73
2022/03/06 02:12:21;;;;;;;3.95;0.90;;;;;;;;;;5085369;28;20032;-73
2022/03/06 02:14:35;;;;;;;2.08;1.00;;;;;;;;;;5083619;28;20063;-74
2022/03/06 02:17:01;;;;;;;2.33;0.98;;;;;;;;;;5085325;28;20032;-73
2022/03/06 02:19:26;;;;;;;3.80;0.82;;;;;;;;;;5084929;28;20461;-73
2022/03/06 02:21:51;;;;;;;1.80;0.80;;;;;;;;;;5085390;28;20401;-73
2022/03/06 02:24:17;;;;;;;4.07;1.00;;;;;;;;;;5084920;28;20017;-73
2022/03/06 02:26:42;;;;;;;3.30;1.17;;;;;;;;;;5084791;28;20044;-73
2022/03/06 02:29:08;;;;;;;2.13;0.88;;;;;;;;;;5083292;28;20029;-73
2022/03/06 02:31:33;;;;;;;2.90;1.17;;;;;;;;;;5083450;28;20051;-74
2022/03/06 02:33:59;;;;;;;1.98;1.30;;;;;;;;;;5084827;28;20035;-73
2022/03/06 02:36:24;;;;;;;4.30;0.98;;;;;;;;;;5084759;28;20029;-74
2022/03/06 02:38:50;;;;;;;3.47;0.95;;;;;;;;;;5084569;28;20032;-74
2022/03/06 02:41:15;;;;;;;4.10;1.00;;;;;;;;;;5084832;28;20043;-73
2022/03/06 02:43:40;;;;;;;3.63;0.80;;;;;;;;;;5084606;28;20020;-74
2022/03/06 02:46:06;;;;;;;2.92;1.20;;;;;;;;;;5083232;28;20035;-73
2022/03/06 02:48:31;;;;;;;7.70;1.13;;;;;;;;;;5083800;28;20032;-73
2022/03/06 02:50:57;;;;;;;3.55;1.15;;;;;;;;;;5084042;28;20074;-73
2022/03/06 02:53:23;;;;;;;2.08;0.93;;;;;;;;;;5084385;28;20024;-73
2022/03/06 02:55:48;;;;;;;4.07;1.08;;;;;;;;;;5084180;28;20025;-73
2022/03/06 02:58:14;;;;;;;4.72;0.98;;;;;;;;;;5084227;28;20055;-73
2022/03/06 03:00:40;;;;;;;3.22;1.10;;;;;;;;;;5082863;28;20016;-74
2022/03/06 03:03:05;;;;;;;1.83;0.90;;;;;;;;;;5084053;28;20024;-73
2022/03/06 03:05:31;;;;;;;5.85;1.10;;;;;;;;;;5082903;28;20040;-74
2022/03/06 03:07:56;;;;;;;2.22;1.13;;;;;;;;;;5083798;28;20028;-73
2022/03/06 03:10:23;;;;;;;1.98;1.10;;;;;;;;;;5084147;28;20025;-73
2022/03/06 03:12:49;;;;;;;3.72;1.25;;;;;;;;;;5083934;28;20029;-72
2022/03/06 03:15:15;;;;;;;4.70;1.23;;;;;;;;;;5083714;28;20094;-74
2022/03/06 03:17:41;;;;;;;7.10;1.35;;;;;;;;;;5082773;28;20060;-74
2022/03/06 03:20:08;;;;;;;1.98;1.08;;;;;;;;;;5084205;28;20020;-74
2022/03/06 03:22:33;;;;;;;5.18;1.33;;;;;;;;;;5083901;28;20084;-73
2022/03/06 03:24:59;;;;;;;2.75;1.42;;;;;;;;;;5083311;28;20028;-73
2022/03/06 03:27:24;;;;;;;3.05;1.60;;;;;;;;;;5082284;28;20055;-73
2022/03/06 03:29:50;;;;;;;3.72;1.23;;;;;;;;;;5083685;28;20012;-73
2022/03/06 03:32:15;;;;;;;2.13;1.27;;;;;;;;;;5083898;28;20036;-73
2022/03/06 03:34:40;;;;;;;5.18;1.95;;;;;;;;;;5083505;28;20040;-73
2022/03/06 03:37:06;;;;;;;4.25;1.65;;;;;;;;;;5083712;28;20404;-73
2022/03/06 03:39:31;;;;;;;6.78;1.95;;;;;;;;;;5083060;28;20020;-73
2022/03/06 03:41:57;;;;;;;3.78;2.13;;;;;;;;;;5082090;28;20028;-73
2022/03/06 03:44:22;;;;;;;8.57;2.40;;;;;;;;;;5081892;28;20028;-73
2022/03/06 03:46:48;;;;;;;7.18;2.20;;;;;;;;;;5083282;28;20032;-73
2022/03/06 03:49:16;;;;;;;4.78;2.35;;;;;;;;;;5083094;28;20024;-73
2022/03/06 03:51:42;;;;;;;5.97;2.33;;;;;;;;;;5082207;28;20520;-73
2022/03/06 03:54:08;;;;;;;4.70;2.58;;;;;;;;;;5085248;28;20039;-73
2022/03/06 03:56:40;;;;;;;11.85;2.92;;;;;;;;;;5084724;28;20068;-73
2022/03/06 03:59:05;;;;;;;8.27;2.97;;;;;;;;;;5085589;28;20029;-72
2022/03/06 04:01:31;;;;;;;6.45;3.28;;;;;;;;;;5083106;28;20032;-72
2022/03/06 04:03:56;;;;;;;10.00;3.20;;;;;;;;;;5082977;28;20020;-72
2022/03/06 04:06:21;;;;;;;8.38;2.80;;;;;;;;;;5083014;28;20089;-72
2022/03/06 04:08:47;;;;;;;10.13;3.30;;;;;;;;;;5082612;28;20072;-72
2022/03/06 04:11:12;;;;;;;6.85;3.10;;;;;;;;;;5082585;28;20029;-72
2022/03/06 04:13:38;;;;;;;13.02;3.88;;;;;;;;;;5098602;28;20165;-72
2022/03/06 04:16:03;;;;;;;5.93;2.88;;;;;;;;;;5082463;28;20054;-72
2022/03/06 04:18:29;;;;;;;8.05;3.10;;;;;;;;;;5082362;28;20405;-72
2022/03/06 04:20:54;;;;;;;10.10;3.25;;;;;;;;;;5082716;28;20028;-72
2022/03/06 04:23:20;;;;;;;4.72;2.38;;;;;;;;;;5082748;28;20545;-72
2022/03/06 04:25:45;;;;;;;6.50;2.53;;;;;;;;;;5082434;28;20024;-72
2022/03/06 04:28:10;;;;;;;5.60;2.63;;;;;;;;;;5082631;28;20079;-72
2022/03/06 04:30:36;;;;;;;5.00;2.53;;;;;;;;;;5082818;28;20058;-73
2022/03/06 04:33:03;;;;;;;8.32;2.88;;;;;;;;;;5081484;28;20037;-72
2022/03/06 04:35:28;;;;;;;13.35;3.20;;;;;;;;;;5081367;28;20081;-74
2022/03/06 04:37:54;;;;;;;5.78;3.40;;;;;;;;;;5081904;28;20119;-72
2022/03/06 04:40:19;;;;;;;8.95;3.05;;;;;;;;;;5082543;28;20080;-72
2022/03/06 04:42:44;;;;;;;6.97;2.40;;;;;;;;;;5082673;28;20033;-72
2022/03/06 04:45:10;;;;;;;7.85;2.63;;;;;;;;;;5082438;28;20021;-72
2022/03/06 04:47:36;;;;;;;5.20;2.50;;;;;;;;;;5081427;28;20101;-73
2022/03/06 04:50:02;;;;;;;8.05;2.50;;;;;;;;;;5082309;28;20033;-72
2022/03/06 04:52:27;;;;;;;9.73;2.50;;;;;;;;;;5082581;28;20044;-72
2022/03/06 04:54:53;;;;;;;12.07;2.88;;;;;;;;;;5082092;28;20024;-72
2022/03/06 04:57:18;;;;;;;7.32;2.65;;;;;;;;;;5098044;28;20118;-71
2022/03/06 04:59:43;;;;;;;8.85;2.88;;;;;;;;;;5082169;28;20033;-73
2022/03/06 05:02:09;;;;;;;5.10;2.35;;;;;;;;;;5082505;28;20032;-72
2022/03/06 05:04:34;;;;;;;7.10;2.67;;;;;;;;;;5082628;28;20024;-72
2022/03/06 05:07:00;;;;;;;6.50;2.10;;;;;;;;;;5082284;28;20024;-72
2022/03/06 05:09:25;;;;;;;7.57;2.63;;;;;;;;;;5082429;28;20029;-73
2022/03/06 05:11:50;;;;;;;8.57;2.78;;;;;;;;;;5082429;28;20585;-72
2022/03/06 05:14:16;;;;;;;6.88;2.50;;;;;;;;;;5082242;28;20039;-72
2022/03/06 05:16:42;;;;;;;9.18;2.80;;;;;;;;;;5081030;28;20040;-73
2022/03/06 05:19:07;;;;;;;6.85;2.45;;;;;;;;;;5081954;28;20313;-72
2022/03/06 05:21:32;;;;;;;9.00;2.60;;;;;;;;;;5082124;28;20024;-72
2022/03/06 05:23:58;;;;;;;5.28;2.55;;;;;;;;;;5082181;28;20497;-72
2022/03/06 05:26:23;;;;;;;8.73;2.40;;;;;;;;;;5082269;28;20049;-72
2022/03/06 05:28:48;;;;;;;5.88;2.00;;;;;;;;;;5081844;28;20021;-72
2022/03/06 05:31:14;;;;;;;4.65;2.28;;;;;;;;;;5082420;28;20086;-72
2022/03/06 05:33:39;;;;;;;8.73;2.67;;;;;;;;;;5081977;28;20051;-72
2022/03/06 05:36:05;;;;;;;7.57;2.35;;;;;;;;;;5082102;28;20028;-72
2022/03/06 05:38:30;;;;;;;7.22;2.10;;;;;;;;;;5081737;28;20025;-72
2022/03/06 05:40:56;;;;;;;7.60;2.42;;;;;;;;;;5081231;28;20027;-72
2022/03/06 05:43:21;;;;;;;5.07;2.25;;;;;;;;;;5081636;28;20056;-72
2022/03/06 05:45:51;;;;;;;8.43;2.60;;;;;;;;;;5082025;28;20093;-72
2022/03/06 05:48:20;;;;;;;5.55;2.53;;;;;;;;;;5082582;28;20016;-72
2022/03/06 05:50:46;;;;;;;7.32;2.80;;;;;;;;;;5085661;28;20029;-72
2022/03/06 05:53:12;;;;;;;8.48;2.70;;;;;;;;;;5085463;28;20502;-72
2022/03/06 05:55:37;;;;;;;8.20;2.25;;;;;;;;;;5085514;28;20178;-72
2022/03/06 05:58:03;;;;;;;6.15;2.75;;;;;;;;;;5085378;28;20025;-72
2022/03/06 06:00:29;;;;;;;8.05;2.50;;;;;;;;;;5085126;28;20052;-73
2022/03/06 06:02:55;;;;;;;6.82;2.85;;;;;;;;;;5083569;28;20517;-72
2022/03/06 06:05:22;;;;;;;11.57;2.60;;;;;;;;;;5085628;28;20016;-72
2022/03/06 06:07:48;;;;;;;7.90;2.63;;;;;;;;;;5100687;28;20021;-72
2022/03/06 06:10:14;;;;;;;8.07;3.15;;;;;;;;;;5084927;28;20016;-72
2022/03/06 06:12:39;;;;;;;5.72;2.25;;;;;;;;;;5085354;28;20024;-72
2022/03/06 06:15:06;;;;;;;5.53;2.50;;;;;;;;;;5085091;28;20028;-72
2022/03/06 06:26:10;;;;;;;9.23;2.90;;;;;;;;;;5533371;23;20053;-74
2022/03/06 07:13:14;;;;;;;6.85;2.20;;;;;;;;;;1911498;23;20048;-76
2022/03/06 07:15:43;;;;;;;7.93;2.55;;;;;;;;;;5059664;28;20079;-76
2022/03/06 07:18:08;;;;;;;5.10;2.25;;;;;;;;;;5039294;28;20041;-73
2022/03/06 07:20:57;;;;;;;5.50;2.42;;;;;;;;;;5053946;28;20021;-74
2022/03/06 07:23:23;;;;;;;5.95;2.33;;;;;;;;;;5060705;28;20032;-73
2022/03/06 07:25:58;;;;;;;4.55;2.10;;;;;;;;;;5054503;28;20045;-74
2022/03/06 07:28:25;;;;;;;5.40;2.47;;;;;;;;;;5067785;28;20041;-74
2022/03/06 07:30:51;;;;;;;6.97;2.00;;;;;;;;;;5047499;28;20039;-73
2022/03/06 07:33:16;;;;;;;7.40;2.90;;;;;;;;;;5047630;28;20139;-74
2022/03/06 07:35:55;;;;;;;7.63;3.20;;;;;;;;;;5066490;28;20036;-74
2022/03/06 07:38:20;;;;;;;5.57;2.40;;;;;;;;;;5047874;28;20032;-73
2022/03/06 07:40:46;;;;;;;5.28;2.38;;;;;;;;;;5065585;28;20024;-73
2022/03/06 07:43:11;;;;;;;5.63;2.08;;;;;;;;;;5065402;28;20048;-73
2022/03/06 07:45:37;;;;;;;7.05;1.95;;;;;;;;;;5047442;28;20064;-74
2022/03/06 07:48:05;;;;;;;10.20;2.55;;;;;;;;;;5065166;28;20115;-73
2022/03/06 07:50:31;;;;;;;9.85;2.05;;;;;;;;;;5047659;28;20072;-75
2022/03/06 07:52:57;;;;;;;6.78;2.47;;;;;;;;;;5046623;28;20055;-73
2022/03/06 07:55:23;;;;;;;6.82;3.08;;;;;;;;;;5064932;28;20029;-73
2022/03/06 07:57:48;;;;;;;7.20;2.45;;;;;;;;;;5047911;28;20127;-73
2022/03/06 08:00:14;;;;;;;5.43;2.53;;;;;;;;;;5064802;28;20033;-73
2022/03/06 08:02:40;;;;;;;6.32;2.08;;;;;;;;;;5047082;28;20087;-73
2022/03/06 08:05:08;;;;;;;5.03;2.30;;;;;;;;;;5064788;28;20068;-73
2022/03/06 08:07:34;;;;;;;5.95;2.17;;;;;;;;;;5065082;28;20049;-73
2022/03/06 08:10:00;;;;;;;4.80;2.13;;;;;;;;;;5064103;28;20037;-73
2022/03/06 08:12:27;;;;;;;6.75;2.15;;;;;;;;;;5063582;28;20021;-74
2022/03/06 08:14:53;;;;;;;5.00;2.60;;;;;;;;;;5045980;28;20049;-73
2022/03/06 08:17:19;;;;;;;5.35;2.47;;;;;;;;;;5064937;28;20065;-74
2022/03/06 08:19:53;;;;;;;6.15;2.17;;;;;;;;;;5046571;28;20056;-73
2022/03/06 08:22:21;;;;;;;8.00;2.70;;;;;;;;;;5065470;28;20025;-73
2022/03/06 08:24:47;;;;;;;6.47;2.70;;;;;;;;;;5046321;28;20032;-73
2022/03/06 08:27:12;;;;;;;6.25;2.28;;;;;;;;;;5062989;28;20090;-74
2022/03/06 08:29:37;;;;;;;8.10;2.30;;;;;;;;;;5062486;28;20039;-73
2022/03/06 08:32:04;;;;;;;9.77;2.60;;;;;;;;;;5063251;28;20108;-73
2022/03/06 08:34:29;;;;;;;3.90;2.15;;;;;;;;;;5063054;28;20025;-74
2022/03/06 08:36:55;;;;;;;3.95;2.10;;;;;;;;;;5062937;28;20032;-73
2022/03/06 08:39:20;;;;;;;4.32;2.03;;;;;;;;;;5062860;28;20032;-74
2022/03/06 08:41:46;;;;;;;4.18;1.83;;;;;;;;;;5062975;28;20028;-74
2022/03/06 08:44:12;;;;;;;7.88;2.33;;;;;;;;;;5062629;28;20025;-73
2022/03/06 08:46:37;;;;;;;5.60;1.90;;;;;;;;;;5062631;28;20092;-73
2022/03/06 08:49:03;;;;;;;6.32;2.10;;;;;;;;;;5062637;28;20021;-73
2022/03/06 08:51:28;;;;;;;5.78;1.98;;;;;;;;;;5061945;28;20025;-73
2022/03/06 08:53:54;;;;;;;4.25;2.03;;;;;;;;;;5062917;28;20387;-74
2022/03/06 08:56:19;;;;;;;3.55;1.90;;;;;;;;;;5062643;28;20033;-73
2022/03/06 08:58:45;;;;;;;4.93;2.25;;;;;;;;;;5062238;28;20040;-74
2022/03/06 09:01:10;;;;;;;2.75;1.58;;;;;;;;;;5062323;28;20071;-72
2022/03/06 09:03:35;;;;;;;6.63;2.08;;;;;;;;;;5062274;28;20025;-74
2022/03/06 09:06:01;;;;;;;6.30;1.92;;;;;;;;;;5062223;28;20029;-73
2022/03/06 09:08:27;;;;;;;5.18;1.83;;;;;;;;;;5062355;28;20449;-74
2022/03/06 09:10:52;;;;;;;5.40;2.08;;;;;;;;;;5044395;28;20028;-73
2022/03/06 09:13:17;;;;;;;5.47;1.70;;;;;;;;;;5061600;28;20037;-73
2022/03/06 09:15:43;;;;;;;5.07;2.08;;;;;;;;;;5062373;28;20049;-74
2022/03/06 09:18:08;;;;;;;4.07;2.10;;;;;;;;;;5062558;28;20032;-73
2022/03/06 09:20:34;;;;;;;5.70;2.10;;;;;;;;;;5062313;28;20059;-73
2022/03/06 09:22:59;;;;;;;3.40;1.80;;;;;;;;;;5062032;28;20028;-74
2022/03/06 09:25:32;;;;;;;6.05;1.70;;;;;;;;;;5048522;28;20025;-75
2022/03/06 09:28:02;;;;;;;5.45;1.73;;;;;;;;;;5047821;28;20025;-73
2022/03/06 09:30:28;;;;;;;4.00;1.58;;;;;;;;;;5066204;28;20040;-74
2022/03/06 09:32:54;;;;;;;5.30;1.73;;;;;;;;;;5065996;28;20336;-73
2022/03/06 09:35:19;;;;;;;4.43;1.60;;;;;;;;;;5048159;28;20145;-74
2022/03/06 09:37:45;;;;;;;4.47;1.70;;;;;;;;;;5066004;28;20056;-73
2022/03/06 09:40:10;;;;;;;4.60;1.63;;;;;;;;;;5065593;28;20033;-73
2022/03/06 09:42:36;;;;;;;6.63;1.50;;;;;;;;;;5066310;28;20104;-73
2022/03/06 09:45:08;;;;;;;7.63;1.50;;;;;;;;;;5047773;28;20334;-73
2022/03/06 09:47:35;;;;;;;6.50;1.58;;;;;;;;;;5047144;28;20025;-73
2022/03/06 09:50:01;;;;;;;5.95;1.80;;;;;;;;;;5065237;28;20040;-73
2022/03/06 09:52:27;;;;;;;2.85;1.42;;;;;;;;;;5047588;28;20040;-73
2022/03/06 09:54:52;;;;;;;5.47;1.27;;;;;;;;;;5047893;28;20033;-74
2022/03/06 09:57:19;;;;;;;3.60;1.50;;;;;;;;;;5048003;28;20059;-73
2022/03/06 09:59:45;;;;;;;2.28;1.40;;;;;;;;;;5065715;28;20055;-73
2022/03/06 10:02:11;;;;;;;5.15;1.60;;;;;;;;;;5047625;28;20053;-74
2022/03/06 10:04:40;;;;;;;4.07;1.50;;;;;;;;;;5065577;28;20029;-73
2022/03/06 10:07:10;;;;;;;4.47;1.40;;;;;;;;;;5047689;28;20483;-73
2022/03/06 10:09:54;;;;;;;6.03;1.75;;;;;;;;;;5065602;28;20021;-74
2022/03/06 10:12:29;;;;;;;5.32;1.80;;;;;;;;;;5047534;28;20032;-73
2022/03/06 10:15:06;;;;;;;3.17;1.85;;;;;;;;;;5047192;28;20581;-73
2022/03/06 10:17:33;;;;;;;4.65;2.58;;;;;;;;;;5059097;28;20056;-74
2022/03/06 10:20:01;;;;;;;4.82;1.92;;;;;;;;;;5064768;28;20025;-73
2022/03/06 10:22:34;;;;;;;4.95;2.05;;;;;;;;;;5065153;28;20060;-73
2022/03/06 10:25:04;;;;;;;4.03;1.70;;;;;;;;;;5065175;28;20356;-73
2022/03/06 10:27:53;;;;;;;6.25;1.88;;;;;;;;;;5047504;28;20017;-74
2022/03/06 10:30:34;;;;;;;5.85;1.75;;;;;;;;;;5065340;28;20017;-73
2022/03/06 10:33:10;;;;;;;4.75;1.50;;;;;;;;;;5065234;28;20029;-73
2022/03/06 10:35:41;;;;;;;2.08;1.20;;;;;;;;;;5046006;28;20048;-74
2022/03/06 10:38:26;;;;;;;4.18;1.42;;;;;;;;;;5064853;28;20025;-73
2022/03/06 10:40:53;;;;;;;3.38;1.50;;;;;;;;;;5065307;28;20025;-73
2022/03/06 10:43:19;;;;;;;3.85;1.65;;;;;;;;;;5064932;28;20044;-73
2022/03/06 10:45:46;;;;;;;3.38;1.33;;;;;;;;;;5064804;28;20037;-73
2022/03/06 10:48:12;;;;;;;5.82;1.80;;;;;;;;;;5064739;28;20028;-74
2022/03/06 10:50:38;;;;;;;6.72;2.85;;;;;;;;;;5046956;28;20035;-73
2022/03/06 10:53:36;;;;;;;5.18;1.90;;;;;;;;;;5064839;28;20025;-74
2022/03/06 10:56:15;;;;;;;4.22;1.80;;;;;;;;;;5040943;28;20068;-74
2022/03/06 10:58:43;;;;;;;6.80;2.28;;;;;;;;;;5064510;28;20079;-74
2022/03/06 11:01:08;;;;;;;4.25;1.10;;;;;;;;;;5046841;28;20365;-73
2022/03/06 11:03:35;;;;;;;5.97;3.30;;;;;;;;;;5064487;28;20147;-73
2022/03/06 11:06:03;;;;;;;5.50;2.13;;;;;;;;;;5064207;28;20241;-74
2022/03/06 11:08:29;;;;;;;2.88;1.40;;;;;;;;;;5064066;28;20029;-74
2022/03/06 11:10:54;;;;;;;3.85;1.50;;;;;;;;;;5046662;28;20052;-74
2022/03/06 11:13:20;;;;;;;2.30;1.20;;;;;;;;;;5064229;28;20029;-73
2022/03/06 11:15:46;;;;;;;6.18;1.70;;;;;;;;;;5046165;28;20249;-74
2022/03/06 11:18:11;;;;;;;3.58;1.20;;;;;;;;;;5064536;28;20044;-74
2022/03/06 11:20:39;;;;;;;4.03;1.35;;;;;;;;;;5046077;28;20096;-73
2022/03/06 11:23:15;;;;;;;3.47;1.20;;;;;;;;;;5063681;28;20029;-72
2022/03/06 11:26:05;;;;;;;2.75;0.98;;;;;;;;;;5045669;28;20033;-72
2022/03/06 11:29:06;;;;;;;5.35;1.30;;;;;;;;;;5063903;28;20033;-72
2022/03/06 11:31:47;;;;;;;10.23;1.00;;;;;;;;;;5063845;28;20028;-72
2022/03/06 11:34:23;;;;;;;2.25;0.77;;;;;;;;;;5044897;28;20029;-72
2022/03/06 11:36:49;;;;;;;4.20;1.13;;;;;;;;;;5063828;28;20084;-72
2022/03/06 11:39:30;;;;;;;3.05;0.95;;;;;;;;;;5063935;28;20029;-72
2022/03/06 11:42:00;;;;;;;2.50;0.90;;;;;;;;;;5064235;28;20044;-72
2022/03/06 11:44:36;;;;;;;5.68;1.20;;;;;;;;;;5063986;28;20064;-73
2022/03/06 11:47:18;;;;;;;2.65;1.00;;;;;;;;;;5063745;28;20033;-74
2022/03/06 11:50:00;;;;;;;3.88;1.30;;;;;;;;;;5063690;28;20067;-74
2022/03/06 11:52:28;;;;;;;3.95;1.08;;;;;;;;;;5063700;28;20091;-73
2022/03/06 11:54:54;;;;;;;1.85;0.82;;;;;;;;;;5063434;28;20052;-73
2022/03/06 11:57:42;;;;;;;3.80;1.02;;;;;;;;;;5063477;28;20033;-73
2022/03/06 12:00:17;;;;;;;3.55;1.13;;;;;;;;;;5063384;28;20025;-74
2022/03/06 12:02:54;;;;;;;3.60;0.75;;;;;;;;;;5045575;28;20063;-73
2022/03/06 12:05:21;;;;;;;2.33;0.80;;;;;;;;;;5063064;28;20036;-73
2022/03/06 12:07:47;;;;;;;3.80;0.88;;;;;;;;;;5063317;28;20103;-73
2022/03/06 12:10:15;;;;;;;3.13;1.08;;;;;;;;;;5062792;28;20093;-73
2022/03/06 12:12:41;;;;;;;4.70;0.75;;;;;;;;;;5062371;28;20036;-73
2022/03/06 12:15:24;;;;;;;2.38;0.90;;;;;;;;;;5062405;28;20423;-73
2022/03/06 12:17:50;;;;;;;3.50;0.80;;;;;;;;;;5062508;28;20055;-73
2022/03/06 12:20:23;;;;;;;2.70;1.05;;;;;;;;;;5045187;28;20029;-74
2022/03/06 12:22:57;;;;;;;3.05;1.10;;;;;;;;;;5062550;28;20025;-73
2022/03/06 12:25:31;;;;;;;2.80;1.10;;;;;;;;;;5063015;28;20460;-73
2022/03/06 12:28:02;;;;;;;1.13;0.60;;;;;;;;;;5062649;28;20101;-73
2022/03/06 12:30:32;;;;;;;4.70;1.40;;;;;;;;;;5045225;28;20032;-74
2022/03/06 12:32:57;;;;;;;2.33;0.90;;;;;;;;;;5062875;28;20035;-73
2022/03/06 12:35:26;;;;;;;2.53;0.80;;;;;;;;;;5062821;28;20085;-74
2022/03/06 12:37:59;;;;;;;2.55;0.85;;;;;;;;;;5044998;28;20029;-73
2022/03/06 12:40:27;;;;;;;1.95;0.82;;;;;;;;;;5055432;28;20020;-75
2022/03/06 12:43:02;;;;;;;2.17;0.80;;;;;;;;;;5062822;28;20363;-73
2022/03/06 12:45:28;;;;;;;1.55;0.95;;;;;;;;;;5062840;28;20068;-74
2022/03/06 12:47:54;;;;;;;1.70;0.82;;;;;;;;;;5062761;28;20037;-74
2022/03/06 12:50:21;;;;;;;3.15;0.80;;;;;;;;;;5062490;28;20175;-73
2022/03/06 12:52:48;;;;;;;1.10;0.70;;;;;;;;;;5062931;28;20475;-73
2022/03/06 12:55:18;;;;;;;1.45;0.75;;;;;;;;;;5062648;28;20106;-72
2022/03/06 12:57:54;;;;;;;2.40;0.60;;;;;;;;;;5062852;28;20116;-73
2022/03/06 13:00:26;;;;;;;1.90;0.77;;;;;;;;;;5066614;28;20155;-74
2022/03/06 13:02:57;;;;;;;2.50;0.57;;;;;;;;;;5048457;28;20029;-73
2022/03/06 13:05:27;;;;;;;3.08;0.70;;;;;;;;;;5048732;28;20103;-73
2022/03/06 13:07:53;;;;;;;0.85;0.60;;;;;;;;;;5066435;28;20510;-73
2022/03/06 13:10:20;;;;;;;2.47;0.70;;;;;;;;;;5048603;28;20102;-73
2022/03/06 13:12:53;;;;;;;1.52;0.60;;;;;;;;;;5066810;28;20033;-74
2022/03/06 13:15:29;;;;;;;1.75;0.70;;;;;;;;;;5066203;28;20052;-73
2022/03/06 13:18:07;;;;;;;1.67;0.80;;;;;;;;;;5066335;28;20056;-73
2022/03/06 13:20:40;;;;;;;1.52;1.08;;;;;;;;;;5066716;28;20032;-73
2022/03/06 13:23:07;;;;;;;1.88;0.70;;;;;;;;;;5048248;28;20119;-73
2022/03/06 13:25:35;;;;;;;1.55;0.68;;;;;;;;;;5066200;28;20041;-73
2022/03/06 13:28:01;;;;;;;1.98;0.70;;;;;;;;;;5065976;28;20486;-72
2022/03/06 13:30:31;;;;;;;2.17;0.93;;;;;;;;;;5066170;28;20088;-74
2022/03/06 13:32:59;;;;;;;1.13;0.57;;;;;;;;;;5048053;28;20050;-73
2022/03/06 13:35:32;;;;;;;0.68;0.40;;;;;;;;;;5066140;28;20471;-74
2022/03/06 13:38:11;;;;;;;2.73;0.70;;;;;;;;;;5065850;28;20037;-72
2022/03/06 13:40:44;;;;;;;1.05;0.68;;;;;;;;;;5065732;28;20723;-73
2022/03/06 13:43:10;;;;;;;2.67;0.68;;;;;;;;;;5066064;28;20494;-72
2022/03/06 13:45:37;;;;;;;2.92;0.80;;;;;;;;;;5066127;28;20032;-72
2022/03/06 13:48:06;;;;;;;1.70;0.80;;;;;;;;;;5065913;28;20025;-72
2022/03/06 13:50:39;;;;;;;1.85;0.80;;;;;;;;;;5066142;28;20024;-77
2022/03/06 13:53:05;;;;;;;;;;;;;;;;;;5066279;28;20025;-76
2022/03/06 13:55:32;;;;;;;1.23;0.60;;;;;;;;;;5065958;28;19917;-77
2022/03/06 13:58:04;;;;;;;2.85;0.70;;;;;;;;;;5047215;28;20025;-78
2022/03/06 14:00:44;;;;;;;2.00;0.70;;;;;;;;;;5065968;28;20160;-81
2022/03/06 14:03:15;;;;;;;1.95;0.60;;;;;;;;;;5065543;28;20031;-76
2022/03/06 14:05:46;;;;;;;0.73;0.50;;;;;;;;;;5065603;28;20060;-78
2022/03/06 14:08:21;;;;;;;2.90;0.50;;;;;;;;;;5065102;28;20027;-78
2022/03/06 14:10:49;;;;;;;0.60;0.55;;;;;;;;;;5047521;28;20035;-76
2022/03/06 14:13:38;;;;;;;0.60;0.40;;;;;;;;;;5065594;28;20457;-79
2022/03/06 14:16:06;;;;;;;0.90;0.52;;;;;;;;;;5065011;28;20061;-78
2022/03/06 14:18:42;;;;;;;1.08;0.40;;;;;;;;;;5065101;28;20029;-80
2022/03/06 14:21:18;;;;;;;1.50;0.50;;;;;;;;;;5047545;28;20029;-78
2022/03/06 14:23:55;;;;;;;3.22;0.60;;;;;;;;;;5047038;28;20061;-79
2022/03/06 14:26:29;;;;;;;1.85;0.35;;;;;;;;;;5065089;28;20353;-77
2022/03/06 14:29:08;;;;;;;0.52;0.40;;;;;;;;;;5064908;28;20036;-79
2022/03/06 14:31:34;;;;;;;0.88;0.45;;;;;;;;;;5058741;28;20028;-81
2022/03/06 14:34:02;;;;;;;1.83;0.60;;;;;;;;;;5064866;28;20106;-79
2022/03/06 14:36:28;;;;;;;1.13;0.50;;;;;;;;;;5065764;28;20064;-78
2022/03/06 14:38:54;;;;;;;0.45;0.40;;;;;;;;;;5065252;28;20036;-77
2022/03/06 14:41:21;;;;;;;0.77;0.50;;;;;;;;;;5056908;28;20025;-83
2022/03/06 14:43:47;;;;;;;2.22;0.63;;;;;;;;;;5065173;28;20033;-81
2022/03/06 14:46:16;;;;;;;1.10;0.47;;;;;;;;;;5064986;28;20040;-77
2022/03/06 14:48:46;;;;;;;1.35;0.50;;;;;;;;;;5064832;28;20479;-80
2022/03/06 14:51:14;;;;;;;0.95;0.50;;;;;;;;;;5047234;28;20470;-78
2022/03/06 14:53:39;;;;;;;2.92;0.55;;;;;;;;;;5046913;28;20060;-78
2022/03/06 14:56:06;;;;;;;0.40;0.32;;;;;;;;;;5065506;28;20024;-77
2022/03/06 14:58:33;;;;;;;3.30;0.40;;;;;;;;;;5064471;28;20021;-78
2022/03/06 15:00:58;;;;;;;1.38;0.52;;;;;;;;;;5064700;28;20071;-78
2022/03/06 15:03:24;;;;;;;0.63;0.40;;;;;;;;;;5046321;28;20032;-78
2022/03/06 15:05:50;;;;;;;1.95;0.55;;;;;;;;;;5046477;28;20025;-78
2022/03/06 15:08:15;;;;;;;2.30;0.70;;;;;;;;;;5064402;28;20032;-78
2022/03/06 15:10:41;;;;;;;1.08;0.60;;;;;;;;;;5064386;28;20033;-78
2022/03/06 15:13:08;;;;;;;2.60;1.13;;;;;;;;;;5064209;28;20029;-78
2022/03/06 15:15:34;;;;;;;0.80;0.57;;;;;;;;;;5064146;28;20060;-77
2022/03/06 15:18:01;;;;;;;0.93;0.50;;;;;;;;;;5064051;28;20033;-77
2022/03/06 15:20:27;;;;;;;1.30;0.57;;;;;;;;;;5046240;28;20036;-78
2022/03/06 15:22:54;;;;;;;1.23;0.43;;;;;;;;;;5045170;28;20028;-78
2022/03/06 15:25:19;;;;;;;0.50;0.40;;;;;;;;;;5063746;28;20028;-79
2022/03/06 15:27:45;;;;;;;0.93;0.50;;;;;;;;;;5046164;28;20029;-78
2022/03/06 15:30:10;;;;;;;0.57;0.30;;;;;;;;;;5063814;28;20044;-77
2022/03/06 15:32:36;;;;;;;1.02;0.50;;;;;;;;;;5064215;28;20037;-80
2022/03/06 15:35:02;;;;;;;1.80;0.60;;;;;;;;;;5063955;28;20025;-80
2022/03/06 15:37:28;;;;;;;2.50;0.65;;;;;;;;;;5062520;28;20033;-77
2022/03/06 15:39:53;;;;;;;2.50;1.60;;;;;;;;;;5063281;28;20106;-77